Time;durP1;ratioP1;P1;durP2;ratioP2;P2;SDS_P1;SDS_P2;PMS_P1;PMS_P2;Temp;Humidity;BMP_temperature;BMP_pressure;BME280_temperature;BME280_humidity;BME280_pressure;Samples;Min_cycle;Max_cycle;Signal;HPM_P1;HPM_P2
2024/01/18 00:01:55;;;;;;;0.10;0.10;;;-3.00;99.90;;;;;;5087223;28;20048;-74
2024/01/18 00:04:23;;;;;;;0.20;0.20;;;-3.00;99.90;;;;;;5074657;28;20060;-74
2024/01/18 00:06:51;;;;;;;0.10;0.10;;;-2.90;99.90;;;;;;5057031;28;20049;-75
2024/01/18 00:09:18;;;;;;;0.10;0.10;;;-2.90;99.90;;;;;;5055863;28;20491;-75
2024/01/18 00:11:46;;;;;;;0.13;0.13;;;-3.00;99.90;;;;;;5040281;28;20040;-74
2024/01/18 00:14:14;;;;;;;0.20;0.20;;;-3.00;99.90;;;;;;5046391;28;20053;-74
2024/01/18 00:16:41;;;;;;;0.10;0.10;;;-3.00;99.90;;;;;;5051828;28;20056;-74
2024/01/18 00:19:10;;;;;;;0.20;0.20;;;-2.90;99.90;;;;;;5050202;28;20049;-74
2024/01/18 00:21:38;;;;;;;0.20;0.20;;;-2.90;99.90;;;;;;5084983;28;20060;-75
2024/01/18 00:24:06;;;;;;;0.20;0.20;;;-2.80;99.90;;;;;;5073278;28;20051;-74
2024/01/18 00:26:33;;;;;;;0.10;0.10;;;-2.70;99.90;;;;;;5072159;28;20041;-75
2024/01/18 00:29:00;;;;;;;0.10;0.10;;;-2.70;99.90;;;;;;5077370;28;21006;-75
2024/01/18 00:31:28;;;;;;;0.20;0.20;;;-2.70;99.90;;;;;;5066181;28;20038;-74
2024/01/18 00:33:58;;;;;;;0.10;0.10;;;-2.70;99.90;;;;;;5070049;28;20083;-75
2024/01/18 00:36:26;;;;;;;0.10;0.10;;;-2.60;99.90;;;;;;5083707;28;20036;-75
2024/01/18 00:38:53;;;;;;;0.20;0.20;;;-2.60;99.90;;;;;;5073334;28;20041;-74
2024/01/18 00:41:20;;;;;;;0.10;0.10;;;-2.60;99.90;;;;;;5072523;28;20076;-75
2024/01/18 00:43:48;;;;;;;0.10;0.10;;;-2.60;99.90;;;;;;5051376;28;20550;-74
2024/01/18 00:46:19;;;;;;;0.20;0.20;;;-2.50;99.90;;;;;;5072013;28;20067;-74
2024/01/18 00:48:46;;;;;;;0.10;0.10;;;-2.50;99.90;;;;;;5068902;28;20045;-75
2024/01/18 00:51:14;;;;;;;0.20;0.20;;;-2.50;99.90;;;;;;5066398;28;20069;-75
2024/01/18 00:53:41;;;;;;;0.10;0.10;;;-2.40;99.90;;;;;;5063639;28;20061;-75
2024/01/18 00:56:10;;;;;;;0.20;0.20;;;-2.50;99.90;;;;;;5070010;28;20853;-75
2024/01/18 00:58:40;;;;;;;0.20;0.20;;;-2.50;99.90;;;;;;5070329;28;20120;-75
2024/01/18 01:01:08;;;;;;;0.10;0.10;;;-2.60;99.90;;;;;;5076761;28;20115;-75
2024/01/18 01:03:36;;;;;;;0.20;0.20;;;-2.60;99.90;;;;;;5052149;28;20453;-74
2024/01/18 01:06:04;;;;;;;0.10;0.10;;;-2.60;99.90;;;;;;5038654;28;20055;-75
2024/01/18 01:08:31;;;;;;;0.20;0.20;;;-2.70;99.90;;;;;;5067784;28;20056;-76
2024/01/18 01:11:03;;;;;;;0.10;0.10;;;-2.80;99.90;;;;;;5070514;28;20068;-76
2024/01/18 01:13:30;;;;;;;0.10;0.10;;;-2.80;99.90;;;;;;5072888;28;20580;-76
2024/01/18 01:15:57;;;;;;;0.10;0.10;;;-2.80;99.90;;;;;;5034047;28;20520;-76
2024/01/18 01:18:26;;;;;;;0.20;0.20;;;-2.90;99.90;;;;;;5049352;28;20111;-76
2024/01/18 01:20:53;;;;;;;0.20;0.20;;;-2.80;99.90;;;;;;5050694;28;20175;-76
2024/01/18 01:23:20;;;;;;;0.20;0.20;;;-2.70;99.90;;;;;;5052271;28;20051;-77
2024/01/18 01:25:48;;;;;;;0.20;0.20;;;-2.70;99.90;;;;;;5062566;28;20045;-76
2024/01/18 01:28:15;;;;;;;0.20;0.20;;;-2.60;99.90;;;;;;5052654;28;20839;-76
2024/01/18 01:30:43;;;;;;;0.20;0.20;;;-2.70;99.90;;;;;;5072490;28;20481;-76
2024/01/18 01:33:10;;;;;;;0.15;0.15;;;-2.80;99.90;;;;;;5068028;28;20092;-76
2024/01/18 01:35:37;;;;;;;0.10;0.10;;;-2.70;99.90;;;;;;5050739;28;21848;-76
2024/01/18 01:38:05;;;;;;;0.10;0.10;;;-2.60;99.90;;;;;;5047760;28;20048;-76
2024/01/18 01:40:32;;;;;;;0.20;0.20;;;-2.50;99.90;;;;;;5066896;28;20048;-76
2024/01/18 01:42:59;;;;;;;0.20;0.20;;;-2.50;99.90;;;;;;5067274;28;20111;-76
2024/01/18 01:45:27;;;;;;;0.20;0.20;;;-2.60;99.90;;;;;;5032705;28;20049;-76
2024/01/18 01:47:54;;;;;;;0.20;0.20;;;-2.60;99.90;;;;;;5036866;28;20114;-76
2024/01/18 01:50:22;;;;;;;0.10;0.10;;;-2.70;99.90;;;;;;5066806;28;20045;-76
2024/01/18 01:52:50;;;;;;;0.10;0.10;;;-2.80;99.90;;;;;;5032458;28;20053;-76
2024/01/18 01:55:17;;;;;;;0.20;0.20;;;-2.70;99.90;;;;;;5068021;28;26256;-76
2024/01/18 01:57:47;;;;;;;0.20;0.20;;;-2.70;99.90;;;;;;5071031;28;20448;-76
2024/01/18 02:00:16;;;;;;;0.20;0.20;;;-2.70;99.90;;;;;;5046359;28;20497;-76
2024/01/18 02:02:44;;;;;;;0.20;0.20;;;-2.80;99.90;;;;;;5056587;28;20047;-76
2024/01/18 02:05:12;;;;;;;0.10;0.10;;;-2.80;99.90;;;;;;5049805;28;20053;-76
2024/01/18 02:07:40;;;;;;;0.10;0.10;;;-2.80;99.90;;;;;;5072986;28;20040;-77
2024/01/18 02:10:08;;;;;;;0.20;0.20;;;-2.80;99.90;;;;;;5039352;28;20488;-77
2024/01/18 02:12:36;;;;;;;0.20;0.20;;;-2.90;99.90;;;;;;5047875;28;20811;-76
2024/01/18 02:15:04;;;;;;;0.10;0.10;;;-2.80;99.90;;;;;;5059213;28;20147;-76
2024/01/18 02:17:32;;;;;;;0.17;0.17;;;-2.80;99.90;;;;;;5069922;28;20056;-75
2024/01/18 02:19:59;;;;;;;0.20;0.20;;;-2.80;99.90;;;;;;5055501;28;20589;-76
2024/01/18 02:22:29;;;;;;;0.10;0.10;;;-2.90;99.90;;;;;;5055831;28;20049;-76
2024/01/18 02:25:15;;;;;;;0.20;0.20;;;-2.90;99.90;;;;;;5068893;28;20049;-75
2024/01/18 02:27:42;;;;;;;0.20;0.20;;;-3.00;99.90;;;;;;5069326;28;20041;-75
2024/01/18 02:30:10;;;;;;;0.13;0.13;;;-3.00;99.90;;;;;;5077903;28;20095;-76
2024/01/18 02:32:37;;;;;;;0.20;0.20;;;-3.00;99.90;;;;;;5062223;28;20053;-75
2024/01/18 02:35:05;;;;;;;0.20;0.20;;;-3.00;99.90;;;;;;5077015;28;20061;-75
2024/01/18 02:37:33;;;;;;;0.20;0.20;;;-2.90;99.90;;;;;;5083733;28;20042;-75
2024/01/18 02:40:01;;;;;;;0.20;0.20;;;-2.90;99.90;;;;;;5065864;28;20045;-75
2024/01/18 02:42:28;;;;;;;0.10;0.10;;;-2.90;99.90;;;;;;5065041;28;20048;-75
2024/01/18 02:44:57;;;;;;;0.20;0.20;;;-2.90;99.90;;;;;;5039550;28;20095;-76
2024/01/18 02:47:25;;;;;;;0.20;0.20;;;-2.90;99.90;;;;;;5054940;28;20520;-77
2024/01/18 02:49:53;;;;;;;0.20;0.20;;;-2.90;99.90;;;;;;5052496;28;20172;-77
2024/01/18 02:52:20;;;;;;;0.20;0.20;;;-2.90;99.90;;;;;;5066278;28;20036;-77
2024/01/18 02:54:47;;;;;;;0.20;0.20;;;-2.80;99.90;;;;;;5057353;28;20520;-76
2024/01/18 02:57:14;;;;;;;0.20;0.20;;;-2.70;99.90;;;;;;5085216;28;20049;-76
2024/01/18 02:59:41;;;;;;;0.20;0.20;;;-2.70;99.90;;;;;;5052506;28;20059;-77
2024/01/18 03:02:09;;;;;;;0.20;0.20;;;-2.70;99.90;;;;;;5076797;28;29229;-76
2024/01/18 03:04:36;;;;;;;0.20;0.20;;;-2.70;99.90;;;;;;5061968;28;20053;-76
2024/01/18 03:07:04;;;;;;;0.10;0.10;;;-2.70;99.90;;;;;;5068000;28;20493;-75
2024/01/18 03:09:31;;;;;;;0.10;0.10;;;-2.80;99.90;;;;;;5065194;28;20048;-75
2024/01/18 03:11:58;;;;;;;0.10;0.10;;;-2.80;99.90;;;;;;5059046;28;20513;-74
2024/01/18 03:14:25;;;;;;;0.10;0.10;;;-2.90;99.90;;;;;;5064744;28;20048;-75
2024/01/18 03:16:53;;;;;;;0.20;0.20;;;-2.60;99.90;;;;;;5057287;28;20045;-75
2024/01/18 03:19:20;;;;;;;0.20;0.20;;;-2.60;99.90;;;;;;5036400;28;20053;-75
2024/01/18 03:21:47;;;;;;;0.20;0.20;;;-2.70;99.90;;;;;;5049390;28;20573;-76
2024/01/18 03:24:14;;;;;;;0.28;0.28;;;-2.80;99.90;;;;;;5072039;28;20111;-73
2024/01/18 03:26:41;;;;;;;0.20;0.20;;;-2.90;99.90;;;;;;5078091;28;20060;-73
2024/01/18 03:29:09;;;;;;;0.20;0.20;;;-3.00;99.90;;;;;;5061235;28;20060;-74
2024/01/18 03:31:36;;;;;;;0.20;0.20;;;-3.10;99.90;;;;;;5059847;28;20042;-74
2024/01/18 03:34:03;;;;;;;0.20;0.20;;;-3.10;99.90;;;;;;5042512;28;20474;-74
2024/01/18 03:36:31;;;;;;;0.20;0.20;;;-3.20;99.90;;;;;;5051471;28;20159;-75
2024/01/18 03:38:58;;;;;;;0.20;0.20;;;-3.30;99.90;;;;;;5071636;28;20502;-74
2024/01/18 03:41:26;;;;;;;0.10;0.10;;;-3.30;99.90;;;;;;5049694;28;20123;-74
2024/01/18 03:43:53;;;;;;;0.20;0.20;;;-3.40;99.90;;;;;;5048998;28;20420;-74
2024/01/18 03:46:20;;;;;;;0.10;0.10;;;-3.40;99.90;;;;;;5074312;28;20051;-74
2024/01/18 03:48:47;;;;;;;0.20;0.20;;;-3.50;99.90;;;;;;5056144;28;20096;-74
2024/01/18 03:51:14;;;;;;;0.20;0.20;;;-3.50;99.90;;;;;;5072119;28;20049;-74
2024/01/18 03:53:45;;;;;;;0.20;0.20;;;-3.60;99.90;;;;;;5062743;28;20060;-75
2024/01/18 03:56:12;;;;;;;0.17;0.17;;;-3.70;99.90;;;;;;5033691;28;20058;-74
2024/01/18 03:58:41;;;;;;;0.20;0.20;;;-3.80;99.90;;;;;;5045409;28;24154;-75
2024/01/18 04:01:08;;;;;;;0.20;0.20;;;-3.80;99.90;;;;;;5068433;28;20072;-75
2024/01/18 04:03:35;;;;;;;0.20;0.20;;;-3.90;99.90;;;;;;5080412;28;20067;-75
2024/01/18 04:06:03;;;;;;;0.20;0.20;;;-4.00;99.90;;;;;;5044733;28;20127;-75
2024/01/18 04:08:31;;;;;;;0.20;0.20;;;-4.10;99.90;;;;;;5061266;28;20517;-75
2024/01/18 04:11:02;;;;;;;0.20;0.20;;;-4.10;99.90;;;;;;5038901;28;20765;-75
2024/01/18 04:13:29;;;;;;;0.20;0.20;;;-4.10;99.90;;;;;;5040233;28;20431;-76
2024/01/18 04:15:57;;;;;;;0.20;0.20;;;-4.20;99.90;;;;;;5049553;28;20464;-76
2024/01/18 04:18:24;;;;;;;0.10;0.10;;;-4.20;99.90;;;;;;5067726;28;20060;-75
2024/01/18 04:20:52;;;;;;;0.20;0.20;;;-4.20;99.90;;;;;;5050705;28;20455;-75
2024/01/18 04:23:21;;;;;;;0.13;0.13;;;-4.20;99.90;;;;;;5051432;28;20523;-74
2024/01/18 04:25:51;;;;;;;0.20;0.20;;;-4.10;99.90;;;;;;5073043;28;20067;-75
2024/01/18 04:28:19;;;;;;;0.30;0.30;;;-3.90;99.90;;;;;;5053184;28;20049;-75
2024/01/18 04:30:47;;;;;;;0.10;0.10;;;-3.70;99.90;;;;;;5059401;28;20060;-76
2024/01/18 04:33:14;;;;;;;0.10;0.10;;;-3.40;99.90;;;;;;5052266;28;20056;-75
2024/01/18 04:35:41;;;;;;;0.20;0.20;;;-3.20;99.90;;;;;;5059558;28;20421;-75
2024/01/18 04:38:08;;;;;;;0.20;0.20;;;-3.00;99.90;;;;;;5068669;28;20053;-76
2024/01/18 04:40:35;;;;;;;0.17;0.17;;;-2.90;99.90;;;;;;5032972;28;20432;-75
2024/01/18 04:43:02;;;;;;;0.10;0.10;;;-2.80;99.90;;;;;;5068797;28;20037;-75
2024/01/18 04:45:30;;;;;;;0.20;0.20;;;-2.80;99.90;;;;;;5056471;28;20057;-75
2024/01/18 04:47:58;;;;;;;0.20;0.20;;;-2.80;99.90;;;;;;5061174;28;20648;-76
2024/01/18 04:50:25;;;;;;;0.15;0.15;;;-2.80;99.90;;;;;;5063050;28;20049;-76
2024/01/18 04:52:53;;;;;;;0.10;0.10;;;-2.70;99.90;;;;;;5065441;28;20037;-76
2024/01/18 04:55:22;;;;;;;0.10;0.10;;;-2.60;99.90;;;;;;5025154;28;20053;-76
2024/01/18 04:57:50;;;;;;;0.13;0.13;;;-2.50;99.90;;;;;;5062865;28;20051;-76
2024/01/18 05:00:17;;;;;;;0.10;0.10;;;-2.50;99.90;;;;;;5043792;28;20067;-76
2024/01/18 05:02:44;;;;;;;0.15;0.15;;;-2.40;99.90;;;;;;5067644;28;20045;-76
2024/01/18 05:05:12;;;;;;;0.20;0.20;;;-2.30;99.90;;;;;;5048197;28;20429;-75
2024/01/18 05:07:44;;;;;;;0.20;0.20;;;-2.20;99.90;;;;;;5053792;28;20049;-75
2024/01/18 05:10:11;;;;;;;0.10;0.10;;;-2.30;99.90;;;;;;5040572;28;20060;-75
2024/01/18 05:12:38;;;;;;;0.15;0.15;;;-2.40;99.90;;;;;;5050800;28;20049;-75
2024/01/18 05:15:07;;;;;;;0.17;0.17;;;-2.50;99.90;;;;;;5071912;28;20524;-75
2024/01/18 05:17:35;;;;;;;0.10;0.10;;;-2.60;99.90;;;;;;5065319;28;20057;-75
2024/01/18 05:20:06;;;;;;;0.20;0.20;;;-2.60;99.90;;;;;;5050862;28;20056;-76
2024/01/18 05:22:34;;;;;;;0.20;0.20;;;-2.60;99.90;;;;;;5073994;28;21592;-75
2024/01/18 05:25:02;;;;;;;0.20;0.20;;;-2.70;99.90;;;;;;5072942;28;20554;-76
2024/01/18 05:27:29;;;;;;;0.20;0.20;;;-2.90;99.90;;;;;;5052530;28;20594;-76
2024/01/18 05:29:57;;;;;;;0.20;0.20;;;-2.90;99.90;;;;;;5078907;28;20053;-76
2024/01/18 05:32:25;;;;;;;0.10;0.10;;;-2.90;99.90;;;;;;5071795;28;20052;-76
2024/01/18 05:34:53;;;;;;;0.10;0.10;;;-3.00;99.90;;;;;;5068495;28;20052;-75
2024/01/18 05:37:23;;;;;;;0.20;0.20;;;-3.10;99.90;;;;;;5084320;28;20143;-74
2024/01/18 05:39:51;;;;;;;0.20;0.20;;;-3.20;99.90;;;;;;5063701;28;20491;-75
2024/01/18 05:42:18;;;;;;;0.20;0.20;;;-3.20;99.90;;;;;;5077924;28;20488;-75
2024/01/18 05:44:50;;;;;;;0.10;0.10;;;-3.40;99.90;;;;;;5055346;28;20044;-75
2024/01/18 05:47:18;;;;;;;0.20;0.20;;;-3.50;99.90;;;;;;5060862;28;20049;-75
2024/01/18 05:49:45;;;;;;;0.20;0.20;;;-3.70;99.90;;;;;;5069585;28;20386;-77
2024/01/18 05:52:12;;;;;;;0.20;0.20;;;-3.80;99.90;;;;;;5070718;28;20040;-76
2024/01/18 05:54:40;;;;;;;0.20;0.20;;;-3.90;99.90;;;;;;5050390;28;20103;-76
2024/01/18 05:57:07;;;;;;;0.15;0.15;;;-4.00;99.90;;;;;;5059377;28;20551;-76
2024/01/18 05:59:35;;;;;;;0.17;0.17;;;-4.00;99.90;;;;;;5069255;28;20063;-76
2024/01/18 06:02:03;;;;;;;0.20;0.20;;;-4.00;99.90;;;;;;5078648;28;20494;-74
2024/01/18 06:04:30;;;;;;;0.20;0.20;;;-4.00;99.90;;;;;;5065696;28;20064;-74
2024/01/18 06:06:58;;;;;;;0.20;0.20;;;-4.00;99.90;;;;;;5023688;28;20539;-74
2024/01/18 06:09:25;;;;;;;0.20;0.20;;;-4.00;99.90;;;;;;5053490;28;20049;-74
2024/01/18 06:11:52;;;;;;;0.20;0.20;;;-4.00;99.90;;;;;;5063920;28;20071;-74
2024/01/18 06:14:20;;;;;;;0.13;0.13;;;-3.90;99.90;;;;;;5058241;28;20051;-74
2024/01/18 06:16:47;;;;;;;0.20;0.20;;;-3.80;99.90;;;;;;5074470;28;20517;-74
2024/01/18 06:19:14;;;;;;;0.20;0.20;;;-3.70;99.90;;;;;;5064783;28;20052;-74
2024/01/18 06:21:42;;;;;;;0.15;0.15;;;-3.50;99.90;;;;;;5064360;28;20045;-74
2024/01/18 06:24:09;;;;;;;0.20;0.20;;;-3.30;99.90;;;;;;5067425;28;20045;-74
2024/01/18 06:26:36;;;;;;;0.20;0.20;;;-3.20;99.90;;;;;;5067867;28;20122;-74
2024/01/18 06:29:04;;;;;;;0.10;0.10;;;-3.10;99.90;;;;;;5048811;28;20048;-74
2024/01/18 06:31:31;;;;;;;0.10;0.10;;;-2.90;99.90;;;;;;5064051;28;20152;-76
2024/01/18 06:33:58;;;;;;;0.13;0.13;;;-2.80;99.90;;;;;;5063825;28;20136;-73
2024/01/18 06:36:26;;;;;;;0.10;0.10;;;-2.70;99.90;;;;;;5073556;28;20144;-74
2024/01/18 06:38:53;;;;;;;0.10;0.10;;;-2.80;99.90;;;;;;5063707;28;20052;-74
2024/01/18 06:41:20;;;;;;;0.20;0.20;;;-2.80;99.90;;;;;;5076778;28;20041;-74
2024/01/18 06:43:49;;;;;;;0.10;0.10;;;-2.80;99.90;;;;;;5053183;28;20052;-74
2024/01/18 06:46:17;;;;;;;0.10;0.10;;;-2.80;99.90;;;;;;5064724;28;20569;-74
2024/01/18 06:48:52;;;;;;;0.10;0.10;;;-2.70;99.90;;;;;;5063005;28;21201;-74
2024/01/18 06:51:23;;;;;;;0.10;0.10;;;-2.50;99.90;;;;;;5075426;28;20049;-74
2024/01/18 06:53:51;;;;;;;0.10;0.10;;;-2.30;99.90;;;;;;5044281;28;20084;-74
2024/01/18 06:56:18;;;;;;;0.20;0.20;;;-2.20;99.90;;;;;;5082543;28;20059;-74
2024/01/18 06:58:45;;;;;;;0.15;0.15;;;-2.00;99.90;;;;;;5062402;28;20041;-74
2024/01/18 07:01:12;;;;;;;0.10;0.10;;;-2.00;99.90;;;;;;5077285;28;20056;-74
2024/01/18 07:03:41;;;;;;;0.20;0.20;;;-2.00;99.90;;;;;;5063737;28;20041;-75
2024/01/18 07:06:09;;;;;;;0.20;0.20;;;-2.00;99.90;;;;;;5041377;28;20067;-75
2024/01/18 07:08:37;;;;;;;0.20;0.20;;;-2.00;99.90;;;;;;5046653;28;20037;-75
2024/01/18 07:11:04;;;;;;;0.10;0.10;;;-2.00;99.90;;;;;;5067439;28;20049;-75
2024/01/18 07:13:32;;;;;;;0.10;0.10;;;-2.00;99.90;;;;;;5070070;28;20099;-75
2024/01/18 07:15:59;;;;;;;0.20;0.20;;;-2.00;99.90;;;;;;5066524;28;20052;-75
2024/01/18 07:18:26;;;;;;;0.20;0.20;;;-2.00;99.90;;;;;;5049663;28;20052;-75
2024/01/18 07:20:54;;;;;;;0.20;0.20;;;-2.00;99.90;;;;;;5066570;28;20055;-75
2024/01/18 07:23:21;;;;;;;0.20;0.20;;;-2.10;99.90;;;;;;5068229;28;20049;-74
2024/01/18 07:25:48;;;;;;;0.20;0.20;;;-2.20;99.90;;;;;;5063514;28;20053;-75
2024/01/18 07:28:15;;;;;;;0.20;0.20;;;-2.10;99.90;;;;;;5056578;28;20049;-74
2024/01/18 07:30:42;;;;;;;0.10;0.10;;;-2.20;99.90;;;;;;5046012;28;20080;-75
2024/01/18 07:33:10;;;;;;;0.10;0.10;;;-2.20;99.90;;;;;;5076542;28;20146;-74
2024/01/18 07:35:37;;;;;;;0.20;0.20;;;-2.20;99.90;;;;;;5048422;28;20056;-75
2024/01/18 07:38:04;;;;;;;0.10;0.10;;;-2.20;99.90;;;;;;5040794;28;20052;-75
2024/01/18 07:40:32;;;;;;;0.20;0.20;;;-2.20;99.90;;;;;;5065450;28;20053;-77
2024/01/18 07:42:59;;;;;;;0.20;0.20;;;-2.10;99.90;;;;;;5048390;28;20036;-77
2024/01/18 07:45:27;;;;;;;0.15;0.15;;;-2.10;99.90;;;;;;5049519;28;20551;-77
2024/01/18 07:47:54;;;;;;;0.20;0.20;;;-2.20;99.90;;;;;;5065534;28;20048;-77
2024/01/18 07:50:21;;;;;;;0.20;0.20;;;-2.20;99.90;;;;;;5034614;28;20053;-77
2024/01/18 07:52:55;;;;;;;0.20;0.20;;;-2.30;99.90;;;;;;5058128;28;20509;-77
2024/01/18 07:55:24;;;;;;;0.20;0.20;;;-2.10;99.90;;;;;;5052586;28;20049;-77
2024/01/18 07:57:52;;;;;;;0.20;0.20;;;-2.10;99.90;;;;;;5052933;28;20065;-77
2024/01/18 08:00:19;;;;;;;0.20;0.20;;;-1.90;99.90;;;;;;5086426;28;20047;-77
2024/01/18 08:02:47;;;;;;;0.20;0.20;;;-1.90;99.90;;;;;;5069741;28;20048;-77
2024/01/18 08:05:14;;;;;;;0.10;0.10;;;-2.00;99.90;;;;;;5055911;28;20037;-77
2024/01/18 08:07:42;;;;;;;0.20;0.20;;;-1.90;99.90;;;;;;5047582;28;20045;-77
2024/01/18 08:10:09;;;;;;;0.10;0.10;;;-1.50;99.90;;;;;;5062066;28;20049;-77
2024/01/18 08:12:37;;;;;;;0.20;0.20;;;-0.90;99.90;;;;;;5050905;28;20523;-77
2024/01/18 08:15:05;;;;;;;0.20;0.20;;;-0.30;99.90;;;;;;5066517;28;20103;-77
2024/01/18 08:17:32;;;;;;;0.20;0.20;;;0.00;99.90;;;;;;5061866;28;20060;-77
2024/01/18 08:20:00;;;;;;;0.10;0.10;;;0.50;99.90;;;;;;5032106;28;21165;-77
2024/01/18 08:22:27;;;;;;;0.20;0.20;;;0.90;99.90;;;;;;5053937;28;20191;-77
2024/01/18 08:24:57;;;;;;;0.10;0.10;;;1.20;99.90;;;;;;5059947;28;20584;-77
2024/01/18 08:27:24;;;;;;;0.20;0.20;;;1.40;99.90;;;;;;5046703;28;20053;-77
2024/01/18 08:29:51;;;;;;;0.10;0.10;;;1.60;99.90;;;;;;5027672;28;20485;-77
2024/01/18 08:32:18;;;;;;;0.10;0.10;;;1.60;99.90;;;;;;5061117;28;20096;-77
2024/01/18 08:34:45;;;;;;;0.10;0.10;;;1.70;99.90;;;;;;5065662;28;20044;-77
2024/01/18 08:37:12;;;;;;;0.10;0.10;;;1.70;99.90;;;;;;5078014;28;20087;-77
2024/01/18 08:39:40;;;;;;;0.20;0.20;;;2.00;99.90;;;;;;5078257;28;20100;-77
2024/01/18 08:42:07;;;;;;;0.10;0.10;;;2.60;99.90;;;;;;5044902;28;20076;-77
2024/01/18 08:44:34;;;;;;;0.20;0.20;;;3.30;99.90;;;;;;5068131;28;20063;-77
2024/01/18 08:47:01;;;;;;;0.15;0.15;;;3.70;99.90;;;;;;5064545;28;20041;-76
2024/01/18 08:49:29;;;;;;;0.10;0.10;;;3.70;99.90;;;;;;5084151;28;20049;-77
2024/01/18 08:51:56;;;;;;;0.20;0.20;;;3.80;99.90;;;;;;5076756;28;20041;-76
2024/01/18 08:54:25;;;;;;;0.20;0.20;;;3.90;99.90;;;;;;5038388;28;20113;-76
2024/01/18 08:56:52;;;;;;;0.20;0.20;;;3.90;99.90;;;;;;5078721;28;22858;-76
2024/01/18 08:59:20;;;;;;;0.10;0.10;;;4.10;99.90;;;;;;5052488;28;20045;-76
2024/01/18 09:01:48;;;;;;;0.20;0.20;;;4.10;99.90;;;;;;5046865;28;20516;-77
2024/01/18 09:04:16;;;;;;;0.10;0.10;;;4.20;99.90;;;;;;5069016;28;20033;-75
2024/01/18 09:06:43;;;;;;;0.15;0.15;;;3.40;99.90;;;;;;5067386;28;20504;-75
2024/01/18 09:09:11;;;;;;;0.10;0.10;;;2.60;99.90;;;;;;5054643;28;20050;-75
2024/01/18 09:11:40;;;;;;;0.10;0.10;;;2.00;99.90;;;;;;5048505;28;20049;-74
2024/01/18 09:14:07;;;;;;;0.20;0.20;;;1.60;99.90;;;;;;5064476;28;20487;-75
2024/01/18 09:16:34;;;;;;;0.30;0.30;;;1.40;99.90;;;;;;5044819;28;20511;-75
2024/01/18 09:19:01;;;;;;;0.20;0.20;;;1.80;99.90;;;;;;5062740;28;20041;-75
2024/01/18 09:21:44;;;;;;;0.20;0.20;;;2.30;99.90;;;;;;5060783;28;20503;-75
2024/01/18 09:24:12;;;;;;;0.10;0.10;;;2.10;99.90;;;;;;5047995;28;20493;-75
2024/01/18 09:26:39;;;;;;;0.30;0.30;;;1.70;99.90;;;;;;5058904;28;20077;-75
2024/01/18 09:29:06;;;;;;;0.20;0.20;;;2.10;99.90;;;;;;5063479;28;20055;-74
2024/01/18 09:31:33;;;;;;;0.17;0.17;;;2.00;99.90;;;;;;5060228;28;20046;-75
2024/01/18 09:34:04;;;;;;;0.20;0.20;;;1.60;99.90;;;;;;5047156;28;20531;-73
2024/01/18 09:36:31;;;;;;;0.30;0.30;;;1.20;99.90;;;;;;5051917;28;20173;-75
2024/01/18 09:38:58;;;;;;;0.20;0.20;;;1.50;99.90;;;;;;5059207;28;20046;-75
2024/01/18 09:41:27;;;;;;;0.28;0.28;;;2.70;99.90;;;;;;5047507;28;20050;-75
2024/01/18 09:44:00;;;;;;;0.30;0.30;;;3.70;99.90;;;;;;5066771;28;20045;-75
2024/01/18 09:46:28;;;;;;;0.32;0.32;;;4.40;99.80;;;;;;5065527;28;20048;-75
2024/01/18 09:48:56;;;;;;;0.30;0.30;;;4.70;99.00;;;;;;5055779;28;20049;-75
2024/01/18 09:51:26;;;;;;;0.40;0.40;;;4.90;97.70;;;;;;5059946;28;20061;-75
2024/01/18 09:53:56;;;;;;;0.30;0.30;;;5.50;97.60;;;;;;5063266;28;20037;-76
2024/01/18 09:56:28;;;;;;;0.40;0.40;;;6.10;95.70;;;;;;5058215;28;20053;-76
2024/01/18 09:58:57;;;;;;;0.30;0.30;;;6.20;95.20;;;;;;5066876;28;20041;-76
2024/01/18 10:01:24;;;;;;;0.30;0.30;;;6.20;94.60;;;;;;5067298;28;20045;-76
2024/01/18 10:03:52;;;;;;;0.30;0.30;;;5.90;94.70;;;;;;5041125;28;20057;-75
2024/01/18 10:06:19;;;;;;;0.20;0.20;;;5.70;95.50;;;;;;5067942;28;20056;-76
2024/01/18 10:08:50;;;;;;;0.20;0.20;;;4.80;95.90;;;;;;5066542;28;20045;-75
2024/01/18 10:11:17;;;;;;;0.30;0.30;;;4.30;97.30;;;;;;5070947;28;20040;-75
2024/01/18 10:13:53;;;;;;;0.20;0.20;;;4.60;98.30;;;;;;5035713;28;20048;-75
2024/01/18 10:16:36;;;;;;;0.20;0.20;;;5.20;97.30;;;;;;5073077;28;20048;-76
2024/01/18 10:19:05;;;;;;;0.20;0.20;;;5.90;95.70;;;;;;5067762;28;20056;-75
2024/01/18 10:21:34;;;;;;;0.30;0.30;;;6.10;94.40;;;;;;5065598;28;20049;-75
2024/01/18 10:24:06;;;;;;;0.20;0.20;;;6.20;93.50;;;;;;5069130;28;20049;-76
2024/01/18 10:26:33;;;;;;;0.20;0.20;;;6.30;93.10;;;;;;5067190;28;20045;-74
2024/01/18 10:29:00;;;;;;;0.20;0.20;;;6.50;92.70;;;;;;5054591;28;20570;-75
2024/01/18 10:31:31;;;;;;;0.10;0.10;;;6.70;92.30;;;;;;5053355;28;20413;-76
2024/01/18 10:33:58;;;;;;;0.20;0.20;;;6.60;91.50;;;;;;5056806;28;20128;-76
2024/01/18 10:36:26;;;;;;;0.10;0.10;;;6.70;91.60;;;;;;5067335;28;20622;-76
2024/01/18 10:38:54;;;;;;;0.20;0.20;;;6.70;91.20;;;;;;5065202;28;20517;-76
2024/01/18 10:41:21;;;;;;;0.20;0.20;;;6.60;91.90;;;;;;5059401;28;20124;-76
2024/01/18 10:43:49;;;;;;;0.20;0.20;;;6.40;92.20;;;;;;5063719;28;20063;-76
2024/01/18 10:46:17;;;;;;;0.20;0.20;;;6.50;92.40;;;;;;5070325;28;20041;-76
2024/01/18 10:48:46;;;;;;;0.20;0.20;;;6.60;91.90;;;;;;5064418;28;20164;-76
2024/01/18 10:51:13;;;;;;;0.20;0.20;;;6.60;92.20;;;;;;5061503;28;20048;-75
2024/01/18 10:53:43;;;;;;;0.10;0.10;;;6.60;92.60;;;;;;5059630;28;20076;-76
2024/01/18 10:56:12;;;;;;;0.20;0.20;;;7.10;92.40;;;;;;5078780;28;20053;-76
2024/01/18 10:58:39;;;;;;;0.20;0.20;;;7.10;92.10;;;;;;5050656;28;20098;-76
2024/01/18 11:01:07;;;;;;;0.20;0.20;;;6.50;92.30;;;;;;5052416;28;20049;-76
2024/01/18 11:03:35;;;;;;;0.10;0.10;;;5.80;94.40;;;;;;5051018;28;20068;-76
2024/01/18 11:06:09;;;;;;;0.20;0.20;;;4.80;97.40;;;;;;5049831;28;20111;-76
2024/01/18 11:08:39;;;;;;;0.10;0.10;;;4.40;99.90;;;;;;5078378;28;20049;-76
2024/01/18 11:11:07;;;;;;;0.20;0.20;;;4.10;99.90;;;;;;5078777;28;20104;-76
2024/01/18 11:13:35;;;;;;;0.10;0.10;;;4.10;99.90;;;;;;5052241;28;20049;-76
2024/01/18 11:16:04;;;;;;;0.10;0.10;;;3.90;99.90;;;;;;5049668;28;20049;-76
2024/01/18 11:18:34;;;;;;;0.10;0.10;;;3.40;99.90;;;;;;5053225;28;20103;-76
2024/01/18 11:21:04;;;;;;;0.10;0.10;;;2.80;99.90;;;;;;5067978;28;20051;-76
2024/01/18 11:23:39;;;;;;;0.10;0.10;;;2.50;99.90;;;;;;5073653;28;20673;-76
2024/01/18 11:26:08;;;;;;;0.10;0.10;;;2.30;99.90;;;;;;5067294;28;20051;-75
2024/01/18 11:28:36;;;;;;;0.17;0.17;;;2.30;99.90;;;;;;5072795;28;20044;-76
2024/01/18 11:31:04;;;;;;;0.20;0.20;;;2.30;99.90;;;;;;5086750;28;20041;-75
2024/01/18 11:33:32;;;;;;;0.10;0.10;;;2.40;99.90;;;;;;5052164;28;20051;-75
2024/01/18 11:35:59;;;;;;;0.13;0.13;;;2.50;99.90;;;;;;5075302;28;20048;-76
2024/01/18 11:38:32;;;;;;;0.10;0.10;;;2.60;99.90;;;;;;5041202;28;20494;-75
2024/01/18 11:41:04;;;;;;;0.10;0.10;;;2.60;99.90;;;;;;5064503;28;20055;-75
2024/01/18 11:43:57;;;;;;;0.13;0.13;;;2.60;99.90;;;;;;5055351;28;20524;-75
2024/01/18 11:46:41;;;;;;;0.10;0.10;;;2.60;99.90;;;;;;5074072;28;20048;-75
2024/01/18 11:49:09;;;;;;;0.20;0.20;;;2.40;99.90;;;;;;5064293;28;20052;-75
2024/01/18 11:51:38;;;;;;;0.10;0.10;;;2.30;99.90;;;;;;5067334;28;20041;-74
2024/01/18 11:54:06;;;;;;;0.17;0.17;;;2.20;99.90;;;;;;5052685;28;20060;-74
2024/01/18 11:56:37;;;;;;;0.20;0.20;;;2.10;99.90;;;;;;5056074;28;20053;-74
2024/01/18 11:59:04;;;;;;;0.20;0.20;;;2.40;99.90;;;;;;5051261;28;20075;-74
2024/01/18 12:01:32;;;;;;;0.20;0.20;;;3.00;99.90;;;;;;5066262;28;20045;-74
2024/01/18 12:03:59;;;;;;;0.20;0.20;;;3.00;99.90;;;;;;5070437;28;20103;-74
2024/01/18 12:06:28;;;;;;;0.17;0.17;;;3.20;99.90;;;;;;5069812;28;20071;-74
2024/01/18 12:08:56;;;;;;;0.10;0.10;;;3.90;99.90;;;;;;5064656;28;20156;-74
2024/01/18 12:11:25;;;;;;;0.10;0.10;;;4.40;99.90;;;;;;5084498;28;20055;-74
2024/01/18 12:13:52;;;;;;;0.20;0.20;;;4.80;99.90;;;;;;5052760;28;20536;-74
2024/01/18 12:16:20;;;;;;;0.10;0.10;;;5.30;99.90;;;;;;5052307;28;20591;-74
2024/01/18 12:18:48;;;;;;;0.20;0.20;;;5.90;99.90;;;;;;5085137;28;20504;-74
2024/01/18 12:21:18;;;;;;;0.20;0.20;;;6.30;99.90;;;;;;5037165;28;20547;-74
2024/01/18 12:23:47;;;;;;;0.10;0.10;;;6.60;98.60;;;;;;5052350;28;20049;-74
2024/01/18 12:26:15;;;;;;;0.13;0.13;;;6.60;98.20;;;;;;5052254;28;20060;-74
2024/01/18 12:28:43;;;;;;;0.10;0.10;;;6.80;97.00;;;;;;5049605;28;20765;-74
2024/01/18 12:31:10;;;;;;;0.10;0.10;;;6.60;97.00;;;;;;5062774;28;20045;-73
2024/01/18 12:33:37;;;;;;;0.10;0.10;;;6.60;97.00;;;;;;5051145;28;20041;-73
2024/01/18 12:36:04;;;;;;;0.10;0.10;;;6.30;96.70;;;;;;5053007;28;20047;-73
2024/01/18 12:38:34;;;;;;;0.10;0.10;;;6.30;97.30;;;;;;5051863;28;20156;-73
2024/01/18 12:41:01;;;;;;;0.10;0.10;;;6.60;96.80;;;;;;5035936;28;20068;-73
2024/01/18 12:43:28;;;;;;;0.10;0.10;;;6.60;96.30;;;;;;5065888;28;20049;-73
2024/01/18 12:45:57;;;;;;;0.17;0.17;;;6.50;96.30;;;;;;5051671;28;20056;-73
2024/01/18 12:48:27;;;;;;;0.20;0.20;;;6.40;96.70;;;;;;5074838;28;20152;-73
2024/01/18 12:50:54;;;;;;;0.20;0.20;;;6.40;96.90;;;;;;5062117;28;20578;-73
2024/01/18 12:53:23;;;;;;;0.10;0.10;;;6.40;96.30;;;;;;5047443;28;20930;-73
2024/01/18 12:55:51;;;;;;;0.10;0.10;;;6.10;97.60;;;;;;5071654;28;20049;-73